Time;durP1;ratioP1;P1;durP2;ratioP2;P2;SDS_P1;SDS_P2;PMS_P1;PMS_P2;Temp;Humidity;BMP_temperature;BMP_pressure;BME280_temperature;BME280_humidity;BME280_pressure;Samples;Min_cycle;Max_cycle;Signal;HPM_P1;HPM_P2
2023/08/12 00:01:53;;;;;;;14.20;9.40;;;;;;;;;;107065;1255;61071;-80
2023/08/12 00:04:19;;;;;;;12.40;9.30;;;;;;;;;;107033;1252;60489;-80
2023/08/12 00:06:46;;;;;;;13.30;9.20;;;;;;;;;;106934;1254;60424;-80
2023/08/12 00:09:14;;;;;;;14.70;8.80;;;;;;;;;;107044;1252;60482;-81
2023/08/12 00:11:41;;;;;;;15.30;9.80;;;;;;;;;;106988;1251;60404;-81
2023/08/12 00:14:07;;;;;;;15.30;10.80;;;;;;;;;;107023;1253;60287;-81
2023/08/12 00:16:34;;;;;;;13.90;8.90;;;;;;;;;;107060;1251;60422;-80
2023/08/12 00:19:01;;;;;;;10.50;8.30;;;;;;;;;;107071;1252;60447;-80
2023/08/12 00:21:27;;;;;;;14.30;8.60;;;;;;;;;;107056;1253;60537;-80
2023/08/12 00:23:54;;;;;;;14.00;9.40;;;;;;;;;;107082;1253;60478;-80
2023/08/12 00:26:20;;;;;;;11.90;8.80;;;;;;;;;;107033;1255;60278;-80
2023/08/12 00:28:48;;;;;;;16.10;9.00;;;;;;;;;;107013;1251;60748;-80
2023/08/12 00:31:14;;;;;;;14.10;9.20;;;;;;;;;;107054;1251;60509;-80
2023/08/12 00:33:41;;;;;;;12.50;8.20;;;;;;;;;;107055;1250;60428;-80
2023/08/12 00:36:07;;;;;;;11.30;7.20;;;;;;;;;;107137;1251;59061;-80
2023/08/12 00:38:34;;;;;;;12.30;7.70;;;;;;;;;;107106;1251;60440;-79
2023/08/12 00:41:00;;;;;;;9.20;7.30;;;;;;;;;;107052;1251;60520;-80
2023/08/12 00:43:26;;;;;;;14.00;9.30;;;;;;;;;;107036;1251;60535;-80
2023/08/12 00:45:53;;;;;;;16.20;8.40;;;;;;;;;;107089;1251;60527;-80
2023/08/12 00:48:19;;;;;;;11.10;7.80;;;;;;;;;;107058;1254;61526;-80
2023/08/12 00:50:46;;;;;;;11.50;8.40;;;;;;;;;;107056;1251;59141;-80
2023/08/12 00:53:12;;;;;;;12.40;9.20;;;;;;;;;;107039;1251;60639;-80
2023/08/12 00:55:38;;;;;;;17.30;10.00;;;;;;;;;;107062;1251;60476;-80
2023/08/12 00:58:05;;;;;;;13.50;8.20;;;;;;;;;;107071;1251;60533;-80
2023/08/12 01:00:32;;;;;;;15.80;9.30;;;;;;;;;;107081;1251;60395;-80
2023/08/12 01:02:58;;;;;;;12.30;8.40;;;;;;;;;;107040;1251;60435;-80
2023/08/12 01:05:25;;;;;;;16.00;9.10;;;;;;;;;;108405;1251;60294;-80
2023/08/12 01:07:53;;;;;;;10.20;7.50;;;;;;;;;;107045;1251;60569;-80
2023/08/12 01:10:20;;;;;;;10.30;7.30;;;;;;;;;;107112;1251;60512;-80
2023/08/12 01:12:51;;;;;;;11.00;7.50;;;;;;;;;;107151;1251;60565;-80
2023/08/12 01:15:20;;;;;;;12.30;8.50;;;;;;;;;;107077;1251;61150;-80
2023/08/12 01:17:51;;;;;;;12.80;8.40;;;;;;;;;;107568;1251;59016;-80
2023/08/12 01:20:24;;;;;;;12.90;8.40;;;;;;;;;;107089;1251;60450;-80
2023/08/12 01:22:57;;;;;;;10.70;8.00;;;;;;;;;;107050;1251;60998;-80
2023/08/12 01:25:24;;;;;;;12.60;9.20;;;;;;;;;;107072;1251;60409;-80
2023/08/12 01:27:51;;;;;;;10.90;8.10;;;;;;;;;;107069;1251;61957;-80
2023/08/12 01:30:17;;;;;;;14.80;8.50;;;;;;;;;;107042;1251;60338;-80
2023/08/12 01:32:44;;;;;;;13.00;8.00;;;;;;;;;;107045;1252;60862;-80
2023/08/12 01:35:13;;;;;;;13.00;8.80;;;;;;;;;;107139;1253;60486;-80
2023/08/12 01:37:39;;;;;;;11.30;8.00;;;;;;;;;;107110;1253;60342;-80
2023/08/12 01:40:06;;;;;;;11.70;8.10;;;;;;;;;;107050;1256;60483;-80
2023/08/12 01:42:33;;;;;;;11.80;8.80;;;;;;;;;;107060;1251;60364;-80
2023/08/12 01:45:01;;;;;;;10.50;8.00;;;;;;;;;;107110;1251;60342;-80
2023/08/12 01:47:27;;;;;;;10.80;7.20;;;;;;;;;;107115;1253;60514;-80
2023/08/12 01:49:54;;;;;;;12.30;7.90;;;;;;;;;;107140;1254;58995;-79
2023/08/12 01:52:20;;;;;;;13.80;7.60;;;;;;;;;;107094;1251;60512;-80
2023/08/12 01:54:47;;;;;;;11.30;7.60;;;;;;;;;;107063;1251;60432;-80
2023/08/12 01:57:13;;;;;;;13.80;8.20;;;;;;;;;;107083;1250;60551;-80
2023/08/12 01:59:40;;;;;;;12.70;7.70;;;;;;;;;;107023;1251;60397;-80
2023/08/12 02:02:06;;;;;;;11.70;7.50;;;;;;;;;;107107;1251;60534;-80
2023/08/12 02:04:33;;;;;;;10.50;7.90;;;;;;;;;;107161;1251;60510;-80
2023/08/12 02:07:00;;;;;;;13.60;7.80;;;;;;;;;;107106;1254;60317;-80
2023/08/12 02:09:26;;;;;;;9.60;7.20;;;;;;;;;;107098;1254;60245;-80
2023/08/12 02:11:52;;;;;;;11.30;8.10;;;;;;;;;;107104;1251;60513;-80
2023/08/12 02:14:19;;;;;;;12.00;8.40;;;;;;;;;;107176;1251;60421;-80
2023/08/12 02:16:45;;;;;;;11.20;7.90;;;;;;;;;;107067;1251;60467;-80
2023/08/12 02:19:12;;;;;;;13.60;7.70;;;;;;;;;;107055;1251;60537;-79
2023/08/12 02:21:38;;;;;;;11.30;8.00;;;;;;;;;;107129;1251;60543;-80
2023/08/12 02:24:05;;;;;;;12.30;8.20;;;;;;;;;;107058;1251;60472;-80
2023/08/12 02:26:31;;;;;;;12.40;8.10;;;;;;;;;;107076;1254;60492;-80
2023/08/12 02:28:57;;;;;;;11.20;8.50;;;;;;;;;;107087;1255;60428;-80
2023/08/12 02:31:24;;;;;;;10.10;6.70;;;;;;;;;;107082;1252;60902;-79
2023/08/12 02:33:51;;;;;;;10.90;8.10;;;;;;;;;;107060;1254;60650;-79
2023/08/12 02:36:17;;;;;;;12.10;8.60;;;;;;;;;;107077;1251;60483;-80
2023/08/12 02:38:44;;;;;;;8.90;7.20;;;;;;;;;;106510;1251;60500;-79
2023/08/12 02:41:10;;;;;;;12.20;7.90;;;;;;;;;;106882;1254;60451;-80
2023/08/12 02:43:37;;;;;;;12.10;8.40;;;;;;;;;;106501;1251;60409;-80
2023/08/12 02:46:03;;;;;;;14.30;7.90;;;;;;;;;;106463;1251;61230;-79
2023/08/12 02:48:29;;;;;;;12.10;8.20;;;;;;;;;;106518;1251;60488;-81
2023/08/12 02:50:56;;;;;;;14.50;8.30;;;;;;;;;;107132;1254;59450;-81
2023/08/12 02:53:22;;;;;;;9.20;7.40;;;;;;;;;;107037;1251;59134;-81
2023/08/12 02:55:49;;;;;;;11.40;7.80;;;;;;;;;;107094;1251;60479;-81
2023/08/12 02:58:15;;;;;;;10.30;7.70;;;;;;;;;;107112;1254;61026;-79
2023/08/12 03:00:43;;;;;;;8.70;6.30;;;;;;;;;;106512;1253;60456;-81
2023/08/12 03:03:10;;;;;;;11.70;7.40;;;;;;;;;;107143;1256;60447;-81
2023/08/12 03:05:36;;;;;;;11.20;7.50;;;;;;;;;;107098;1251;60451;-81
2023/08/12 03:08:03;;;;;;;29.30;8.60;;;;;;;;;;107072;1251;60418;-81
2023/08/12 03:10:30;;;;;;;8.70;7.80;;;;;;;;;;107149;1251;60191;-79
2023/08/12 03:12:56;;;;;;;11.10;7.00;;;;;;;;;;107021;1251;60587;-79
2023/08/12 03:15:23;;;;;;;11.40;7.90;;;;;;;;;;106651;1251;60530;-80
2023/08/12 03:17:49;;;;;;;8.60;6.30;;;;;;;;;;106697;1254;59071;-81
2023/08/12 03:20:16;;;;;;;10.80;7.70;;;;;;;;;;107140;1254;60426;-81
2023/08/12 03:22:42;;;;;;;10.00;7.60;;;;;;;;;;107110;1251;61559;-79
2023/08/12 03:25:08;;;;;;;9.80;6.80;;;;;;;;;;106878;1252;60482;-79
2023/08/12 03:27:35;;;;;;;11.10;7.50;;;;;;;;;;106499;1250;60540;-79
2023/08/12 03:30:01;;;;;;;13.00;7.60;;;;;;;;;;106564;1250;60617;-79
2023/08/12 03:32:28;;;;;;;10.40;7.90;;;;;;;;;;106536;1251;60408;-79
2023/08/12 03:34:54;;;;;;;12.70;7.60;;;;;;;;;;106470;1251;60460;-81
2023/08/12 03:37:20;;;;;;;9.70;6.80;;;;;;;;;;107086;1251;60470;-81
2023/08/12 03:39:47;;;;;;;11.30;6.20;;;;;;;;;;107022;1251;60352;-81
2023/08/12 03:42:14;;;;;;;12.40;7.20;;;;;;;;;;107086;1251;60461;-79
2023/08/12 03:44:41;;;;;;;10.70;6.80;;;;;;;;;;106498;1251;61233;-79
2023/08/12 03:47:07;;;;;;;13.10;7.70;;;;;;;;;;106534;1251;60543;-79
2023/08/12 03:49:33;;;;;;;9.90;7.40;;;;;;;;;;106539;1254;60501;-79
2023/08/12 03:52:00;;;;;;;13.70;7.40;;;;;;;;;;106521;1254;60639;-81
2023/08/12 03:54:26;;;;;;;10.30;8.20;;;;;;;;;;107103;1250;60410;-81
2023/08/12 03:56:52;;;;;;;14.60;8.30;;;;;;;;;;107087;1250;60562;-79
2023/08/12 03:59:19;;;;;;;10.40;7.00;;;;;;;;;;107037;1251;60594;-81
2023/08/12 04:01:45;;;;;;;11.00;7.50;;;;;;;;;;107054;1251;60410;-79
2023/08/12 04:04:12;;;;;;;12.90;7.60;;;;;;;;;;106525;1251;60405;-81
2023/08/12 04:06:38;;;;;;;10.30;7.40;;;;;;;;;;107089;1251;60434;-81
2023/08/12 04:09:05;;;;;;;9.30;7.20;;;;;;;;;;107170;1251;60511;-79
2023/08/12 04:11:31;;;;;;;9.80;6.80;;;;;;;;;;106576;1251;61170;-80
2023/08/12 04:13:57;;;;;;;11.70;7.00;;;;;;;;;;106484;1254;60450;-81
2023/08/12 04:16:24;;;;;;;10.00;6.90;;;;;;;;;;107102;1251;60933;-81
2023/08/12 04:18:50;;;;;;;10.70;7.90;;;;;;;;;;107078;1251;60543;-81
2023/08/12 04:21:16;;;;;;;9.20;6.90;;;;;;;;;;107079;1251;60514;-81
2023/08/12 04:23:43;;;;;;;9.90;7.00;;;;;;;;;;107067;1251;59011;-81
2023/08/12 04:26:09;;;;;;;9.70;6.50;;;;;;;;;;107088;1253;60531;-81
2023/08/12 04:28:36;;;;;;;8.70;6.80;;;;;;;;;;107142;1254;61560;-80
2023/08/12 04:31:05;;;;;;;10.50;7.60;;;;;;;;;;107077;1254;60435;-80
2023/08/12 04:33:32;;;;;;;11.60;7.00;;;;;;;;;;107026;1252;60199;-80
2023/08/12 04:35:58;;;;;;;9.00;6.10;;;;;;;;;;107029;1251;60451;-80
2023/08/12 04:38:25;;;;;;;11.70;7.40;;;;;;;;;;107038;1251;60531;-80
2023/08/12 04:40:52;;;;;;;10.40;7.20;;;;;;;;;;107041;1250;60425;-80
2023/08/12 04:43:18;;;;;;;13.50;6.50;;;;;;;;;;107122;1251;61096;-80
2023/08/12 04:45:46;;;;;;;11.20;6.60;;;;;;;;;;107078;1251;60514;-80
2023/08/12 04:48:12;;;;;;;7.40;6.10;;;;;;;;;;107080;1251;59122;-80
2023/08/12 04:50:39;;;;;;;8.10;5.60;;;;;;;;;;106999;1252;60374;-80
2023/08/12 04:53:05;;;;;;;9.60;6.60;;;;;;;;;;107018;1253;60364;-80
2023/08/12 04:55:32;;;;;;;9.50;6.50;;;;;;;;;;107025;1253;60495;-80
2023/08/12 04:57:58;;;;;;;9.70;6.20;;;;;;;;;;107040;1251;60432;-80
2023/08/12 05:00:25;;;;;;;8.50;5.80;;;;;;;;;;107034;1251;60519;-80
2023/08/12 05:02:51;;;;;;;8.30;5.80;;;;;;;;;;107053;1251;60432;-80
2023/08/12 05:05:18;;;;;;;7.40;6.00;;;;;;;;;;107072;1253;58890;-80
2023/08/12 05:07:48;;;;;;;9.60;5.50;;;;;;;;;;107024;1250;58988;-80
2023/08/12 05:10:17;;;;;;;8.00;6.30;;;;;;;;;;107023;1251;60346;-80
2023/08/12 05:12:44;;;;;;;9.00;6.40;;;;;;;;;;107040;1251;60551;-79
2023/08/12 05:15:10;;;;;;;10.00;5.80;;;;;;;;;;107032;1251;60353;-80
2023/08/12 05:17:37;;;;;;;7.40;6.30;;;;;;;;;;106998;1251;59010;-80
2023/08/12 05:20:04;;;;;;;9.70;6.40;;;;;;;;;;107011;1251;59818;-80
2023/08/12 05:22:30;;;;;;;8.20;6.00;;;;;;;;;;107024;1251;60890;-80
2023/08/12 05:24:57;;;;;;;7.30;6.10;;;;;;;;;;107043;1253;60534;-79
2023/08/12 05:27:23;;;;;;;10.20;6.20;;;;;;;;;;107002;1251;60528;-80
2023/08/12 05:29:49;;;;;;;9.80;7.00;;;;;;;;;;107093;1254;60353;-80
2023/08/12 05:32:16;;;;;;;10.60;7.20;;;;;;;;;;106991;1252;60601;-80
2023/08/12 05:34:42;;;;;;;11.30;7.90;;;;;;;;;;106997;1251;60441;-80
2023/08/12 05:37:09;;;;;;;11.70;7.20;;;;;;;;;;107021;1251;60463;-80
2023/08/12 05:39:35;;;;;;;16.80;9.70;;;;;;;;;;107022;1252;60537;-80
2023/08/12 05:42:01;;;;;;;11.30;7.20;;;;;;;;;;107057;1251;60532;-80
2023/08/12 05:44:28;;;;;;;8.90;6.90;;;;;;;;;;107021;1251;59059;-80
2023/08/12 05:46:54;;;;;;;9.50;6.20;;;;;;;;;;106997;1251;60486;-80
2023/08/12 05:49:21;;;;;;;7.20;5.80;;;;;;;;;;107070;1254;60440;-80
2023/08/12 05:51:47;;;;;;;8.10;5.90;;;;;;;;;;107001;1251;60448;-80
2023/08/12 05:54:13;;;;;;;8.00;6.60;;;;;;;;;;107013;1251;60619;-80
2023/08/12 05:56:40;;;;;;;7.50;5.70;;;;;;;;;;107021;1251;60475;-80
2023/08/12 05:59:06;;;;;;;11.40;6.60;;;;;;;;;;107056;1253;60439;-80
2023/08/12 06:01:33;;;;;;;8.70;6.00;;;;;;;;;;106997;1251;60469;-81
2023/08/12 06:03:59;;;;;;;10.10;6.20;;;;;;;;;;107037;1251;60520;-81
2023/08/12 06:06:25;;;;;;;8.20;5.20;;;;;;;;;;106942;1251;60542;-80
2023/08/12 06:08:52;;;;;;;8.10;5.40;;;;;;;;;;107093;1251;59119;-80
2023/08/12 06:11:18;;;;;;;10.70;6.00;;;;;;;;;;107121;1251;60534;-81
2023/08/12 06:13:45;;;;;;;8.80;5.10;;;;;;;;;;107018;1251;60336;-80
2023/08/12 06:16:11;;;;;;;8.90;4.80;;;;;;;;;;107069;1251;61292;-80
2023/08/12 06:18:38;;;;;;;7.90;6.00;;;;;;;;;;107085;1251;60531;-80
2023/08/12 06:21:04;;;;;;;7.10;5.10;;;;;;;;;;107049;1251;60422;-80
2023/08/12 06:23:31;;;;;;;7.00;5.50;;;;;;;;;;107133;1251;60526;-80
2023/08/12 06:25:57;;;;;;;9.20;7.30;;;;;;;;;;107008;1254;60507;-80
2023/08/12 06:28:23;;;;;;;7.10;5.70;;;;;;;;;;107052;1251;60544;-80
2023/08/12 06:30:50;;;;;;;11.10;5.10;;;;;;;;;;107052;1252;59905;-80
2023/08/12 06:33:17;;;;;;;12.90;5.40;;;;;;;;;;107019;1251;60483;-80
2023/08/12 06:35:43;;;;;;;10.20;6.40;;;;;;;;;;107012;1253;60604;-80
2023/08/12 06:38:10;;;;;;;10.00;5.60;;;;;;;;;;107100;1251;61348;-80
2023/08/12 06:40:38;;;;;;;10.90;6.00;;;;;;;;;;106996;1253;60526;-81
2023/08/12 06:43:04;;;;;;;8.90;5.90;;;;;;;;;;107018;1251;60521;-81
2023/08/12 06:45:30;;;;;;;5.80;5.20;;;;;;;;;;107135;1251;60590;-81
2023/08/12 06:47:57;;;;;;;8.80;5.10;;;;;;;;;;107119;1254;60323;-80
2023/08/12 06:50:24;;;;;;;9.60;5.90;;;;;;;;;;107069;1251;62645;-80
2023/08/12 06:52:50;;;;;;;11.30;6.00;;;;;;;;;;107178;1251;60399;-81
2023/08/12 06:55:17;;;;;;;11.30;5.30;;;;;;;;;;107073;1251;60447;-81
2023/08/12 06:57:43;;;;;;;11.60;5.90;;;;;;;;;;107006;1251;60458;-81
2023/08/12 07:00:10;;;;;;;9.10;5.30;;;;;;;;;;107058;1254;61466;-81
2023/08/12 07:02:37;;;;;;;7.30;5.40;;;;;;;;;;107056;1254;60931;-81
2023/08/12 07:05:05;;;;;;;6.30;4.70;;;;;;;;;;107095;1250;60411;-81
2023/08/12 07:07:31;;;;;;;9.70;4.90;;;;;;;;;;107090;1253;60432;-81
2023/08/12 07:09:58;;;;;;;7.40;4.70;;;;;;;;;;107057;1251;60339;-81
2023/08/12 07:12:24;;;;;;;7.90;5.60;;;;;;;;;;106797;1254;317635;-81
2023/08/12 07:14:51;;;;;;;8.30;5.80;;;;;;;;;;107017;1251;60618;-81
2023/08/12 07:17:18;;;;;;;6.40;5.10;;;;;;;;;;107061;1255;60448;-81
2023/08/12 07:19:44;;;;;;;5.60;4.30;;;;;;;;;;107064;1251;60450;-81
2023/08/12 07:22:11;;;;;;;8.00;4.40;;;;;;;;;;107099;1251;60431;-81
2023/08/12 07:24:37;;;;;;;7.00;5.10;;;;;;;;;;107055;1256;60408;-81
2023/08/12 07:27:04;;;;;;;9.90;4.70;;;;;;;;;;107061;1253;60431;-81
2023/08/12 07:29:30;;;;;;;7.60;4.10;;;;;;;;;;107108;1253;60426;-81
2023/08/12 07:31:57;;;;;;;7.10;5.00;;;;;;;;;;107075;1254;60415;-81
2023/08/12 07:34:23;;;;;;;7.00;4.20;;;;;;;;;;107087;1253;60482;-81
2023/08/12 07:36:49;;;;;;;5.60;4.30;;;;;;;;;;107097;1251;60482;-81
2023/08/12 07:39:16;;;;;;;7.20;4.30;;;;;;;;;;107060;1252;60466;-81
2023/08/12 07:41:42;;;;;;;7.40;4.30;;;;;;;;;;107082;1253;60404;-81
2023/08/12 07:44:09;;;;;;;8.10;4.20;;;;;;;;;;107055;1254;60473;-81
2023/08/12 07:46:35;;;;;;;7.90;4.10;;;;;;;;;;107060;1251;60426;-81
2023/08/12 07:49:02;;;;;;;7.10;4.00;;;;;;;;;;107125;1251;60459;-81
2023/08/12 07:51:29;;;;;;;3.80;2.90;;;;;;;;;;107025;1254;60425;-81
2023/08/12 07:53:55;;;;;;;7.00;3.80;;;;;;;;;;106981;1254;60306;-82
2023/08/12 07:56:22;;;;;;;6.20;3.50;;;;;;;;;;107120;1254;60328;-82
2023/08/12 07:58:48;;;;;;;4.60;3.10;;;;;;;;;;107111;1251;60562;-82
2023/08/12 08:01:15;;;;;;;7.20;3.70;;;;;;;;;;107173;1253;60421;-82
2023/08/12 08:03:41;;;;;;;8.00;4.20;;;;;;;;;;108205;1251;60349;-82
2023/08/12 08:06:08;;;;;;;5.80;3.60;;;;;;;;;;109207;1251;58451;-82
2023/08/12 08:08:34;;;;;;;6.90;3.20;;;;;;;;;;107105;1254;60501;-82
2023/08/12 08:11:00;;;;;;;5.00;3.60;;;;;;;;;;107182;1254;60343;-82
2023/08/12 08:13:27;;;;;;;5.40;3.70;;;;;;;;;;107107;1254;60424;-82
2023/08/12 08:15:54;;;;;;;7.80;2.60;;;;;;;;;;107157;1252;60472;-82
2023/08/12 08:18:20;;;;;;;8.50;3.40;;;;;;;;;;107185;1251;60998;-83
2023/08/12 08:20:47;;;;;;;5.10;3.10;;;;;;;;;;107081;1253;60341;-82
2023/08/12 08:23:13;;;;;;;4.10;2.30;;;;;;;;;;107057;1251;60533;-82
2023/08/12 08:25:39;;;;;;;4.60;2.70;;;;;;;;;;107187;1253;60465;-82
2023/08/12 08:28:06;;;;;;;3.30;2.50;;;;;;;;;;106998;1251;59503;-83
2023/08/12 08:30:32;;;;;;;4.20;2.20;;;;;;;;;;107111;1254;60415;-83
2023/08/12 08:32:59;;;;;;;2.60;2.10;;;;;;;;;;106951;1253;60447;-83
2023/08/12 08:35:25;;;;;;;3.30;2.10;;;;;;;;;;107028;1254;60454;-82
2023/08/12 08:37:52;;;;;;;4.10;2.30;;;;;;;;;;107108;1253;60983;-83
2023/08/12 08:40:19;;;;;;;5.70;4.90;;;;;;;;;;107058;1253;60216;-83
2023/08/12 08:42:46;;;;;;;4.20;3.70;;;;;;;;;;107107;1253;60590;-83
2023/08/12 08:45:13;;;;;;;3.50;2.30;;;;;;;;;;107102;1251;60401;-83
2023/08/12 08:47:39;;;;;;;5.60;2.10;;;;;;;;;;107102;1251;61700;-82
2023/08/12 08:50:06;;;;;;;4.40;2.10;;;;;;;;;;107104;1255;60327;-83
2023/08/12 08:52:32;;;;;;;4.70;2.10;;;;;;;;;;107096;1253;60476;-82
2023/08/12 08:55:00;;;;;;;4.60;2.40;;;;;;;;;;107088;1254;60454;-83
2023/08/12 08:57:28;;;;;;;;;;;;;;;;;;107174;1251;60401;-83
2023/08/12 08:59:54;;;;;;;3.80;2.50;;;;;;;;;;107274;1254;60414;-83
2023/08/12 09:02:21;;;;;;;4.00;2.00;;;;;;;;;;107133;1251;60353;-83
2023/08/12 09:04:47;;;;;;;2.60;1.90;;;;;;;;;;107126;1253;60440;-83
2023/08/12 09:07:14;;;;;;;5.20;2.10;;;;;;;;;;107144;1253;60487;-82
2023/08/12 09:09:41;;;;;;;4.20;2.20;;;;;;;;;;107060;1250;59066;-82
2023/08/12 09:12:08;;;;;;;4.10;2.50;;;;;;;;;;107128;1253;61165;-82
2023/08/12 09:14:34;;;;;;;4.90;2.20;;;;;;;;;;107119;1252;61044;-82
2023/08/12 09:17:01;;;;;;;5.20;2.20;;;;;;;;;;107072;1251;60364;-82
2023/08/12 09:19:28;;;;;;;3.30;2.20;;;;;;;;;;107093;1253;60404;-82
2023/08/12 09:21:54;;;;;;;5.20;2.60;;;;;;;;;;107157;1251;61253;-82
2023/08/12 09:24:24;;;;;;;4.90;2.10;;;;;;;;;;108639;1251;59444;-83
2023/08/12 09:26:51;;;;;;;3.90;2.70;;;;;;;;;;107113;1252;60561;-83
2023/08/12 09:29:18;;;;;;;3.70;2.00;;;;;;;;;;107202;1254;60487;-83
2023/08/12 09:31:44;;;;;;;2.80;2.00;;;;;;;;;;107136;1255;59044;-83
2023/08/12 09:34:11;;;;;;;3.60;1.50;;;;;;;;;;107209;1251;60463;-82
2023/08/12 09:36:38;;;;;;;3.90;2.30;;;;;;;;;;107164;1254;60443;-82
2023/08/12 09:39:10;;;;;;;2.80;2.30;;;;;;;;;;107167;1251;60349;-83
2023/08/12 09:41:37;;;;;;;3.70;2.00;;;;;;;;;;107180;1252;60891;-83
2023/08/12 09:44:03;;;;;;;3.80;2.00;;;;;;;;;;107167;1252;60439;-83
2023/08/12 09:46:30;;;;;;;5.90;2.50;;;;;;;;;;107082;1251;60434;-83
2023/08/12 09:48:57;;;;;;;4.80;2.10;;;;;;;;;;107143;1251;62239;-83
2023/08/12 09:51:23;;;;;;;3.10;2.30;;;;;;;;;;107161;1252;58996;-83
2023/08/12 09:53:50;;;;;;;3.50;2.70;;;;;;;;;;107173;1253;60534;-83
2023/08/12 09:56:17;;;;;;;2.50;1.70;;;;;;;;;;107192;1249;60422;-83
2023/08/12 09:58:44;;;;;;;4.60;2.10;;;;;;;;;;107212;1251;60419;-83
2023/08/12 10:01:10;;;;;;;3.10;2.30;;;;;;;;;;107157;1256;60531;-83
2023/08/12 10:03:37;;;;;;;2.90;2.10;;;;;;;;;;106884;1253;60441;-84
2023/08/12 10:06:04;;;;;;;4.30;2.40;;;;;;;;;;107015;1254;61627;-83
2023/08/12 10:08:30;;;;;;;6.90;2.70;;;;;;;;;;106708;1253;61590;-83
2023/08/12 10:10:57;;;;;;;6.80;5.80;;;;;;;;;;106788;1253;61538;-83
2023/08/12 10:13:23;;;;;;;6.70;2.40;;;;;;;;;;106757;1251;61232;-83
2023/08/12 10:15:50;;;;;;;3.70;2.20;;;;;;;;;;106920;1251;59090;-83
2023/08/12 10:18:18;;;;;;;2.60;1.70;;;;;;;;;;106829;1251;60417;-83
2023/08/12 10:20:44;;;;;;;3.30;2.00;;;;;;;;;;106824;1253;60543;-83
2023/08/12 10:23:13;;;;;;;5.40;3.20;;;;;;;;;;106790;1251;59042;-83
2023/08/12 10:25:40;;;;;;;3.00;2.30;;;;;;;;;;106816;1256;62258;-83
2023/08/12 10:28:06;;;;;;;3.10;1.90;;;;;;;;;;106774;1256;60424;-83
2023/08/12 10:30:33;;;;;;;5.00;2.20;;;;;;;;;;106827;1251;60451;-84
2023/08/12 10:33:00;;;;;;;4.60;3.20;;;;;;;;;;107034;1253;60630;-83
2023/08/12 10:35:42;;;;;;;3.90;1.90;;;;;;;;;;106835;1252;60427;-84
2023/08/12 10:38:08;;;;;;;4.10;2.40;;;;;;;;;;106754;1256;60989;-83
2023/08/12 10:40:35;;;;;;;5.40;3.00;;;;;;;;;;106770;1253;61487;-83
2023/08/12 10:43:02;;;;;;;6.00;3.20;;;;;;;;;;106891;1250;60306;-83
2023/08/12 10:46:01;;;;;;;4.50;2.50;;;;;;;;;;106723;1255;60534;-83
2023/08/12 10:48:28;;;;;;;2.60;2.40;;;;;;;;;;106518;1255;60495;-83
2023/08/12 10:50:55;;;;;;;5.70;2.10;;;;;;;;;;106803;1250;60305;-83
2023/08/12 10:53:22;;;;;;;;;;;;;;;;;;106853;1251;60437;-83
2023/08/12 10:55:49;;;;;;;6.20;2.90;;;;;;;;;;106789;1255;60350;-83
2023/08/12 10:58:34;;;;;;;4.60;2.40;;;;;;;;;;106828;1254;60486;-83
2023/08/12 11:01:01;;;;;;;5.30;1.70;;;;;;;;;;106866;1255;60372;-83
2023/08/12 11:03:32;;;;;;;5.40;2.50;;;;;;;;;;106807;1253;60514;-83
2023/08/12 11:05:59;;;;;;;4.00;2.40;;;;;;;;;;106781;1251;60284;-82
2023/08/12 11:08:29;;;;;;;3.90;2.50;;;;;;;;;;106764;1253;60340;-82
2023/08/12 11:10:56;;;;;;;4.50;2.00;;;;;;;;;;106815;1254;60440;-82
2023/08/12 11:13:23;;;;;;;;;;;;;;;;;;106856;1255;60493;-83
2023/08/12 11:15:49;;;;;;;2.70;2.00;;;;;;;;;;106823;1256;59341;-82
2023/08/12 11:18:17;;;;;;;3.60;2.20;;;;;;;;;;106805;1251;60553;-82
2023/08/12 11:20:43;;;;;;;3.30;2.30;;;;;;;;;;106826;1255;60526;-82
2023/08/12 11:23:10;;;;;;;5.30;2.70;;;;;;;;;;107155;1253;60412;-83
2023/08/12 11:25:38;;;;;;;5.30;3.00;;;;;;;;;;107056;1255;61140;-82
2023/08/12 11:28:04;;;;;;;3.10;2.30;;;;;;;;;;107003;1255;62409;-82
2023/08/12 11:30:31;;;;;;;3.40;2.90;;;;;;;;;;106879;1255;60451;-82
2023/08/12 11:32:57;;;;;;;6.10;3.70;;;;;;;;;;106815;1251;60451;-82
2023/08/12 11:35:24;;;;;;;4.00;2.70;;;;;;;;;;106783;1251;60349;-82
2023/08/12 11:37:55;;;;;;;5.30;2.90;;;;;;;;;;106855;1253;60859;-82
2023/08/12 11:40:22;;;;;;;5.50;2.70;;;;;;;;;;106820;1255;61172;-82
2023/08/12 11:42:48;;;;;;;6.80;2.50;;;;;;;;;;106830;1252;60451;-82
2023/08/12 11:45:18;;;;;;;3.20;2.10;;;;;;;;;;106821;1251;60454;-82
2023/08/12 11:47:46;;;;;;;3.30;2.00;;;;;;;;;;106724;1253;60429;-82
2023/08/12 11:50:13;;;;;;;3.50;2.40;;;;;;;;;;106839;1254;60480;-82
2023/08/12 11:52:39;;;;;;;3.00;2.10;;;;;;;;;;106779;1251;62254;-82
2023/08/12 11:55:06;;;;;;;3.70;2.80;;;;;;;;;;106829;1254;60432;-82
2023/08/12 11:57:35;;;;;;;4.80;2.20;;;;;;;;;;106763;1251;60435;-82
2023/08/12 12:00:09;;;;;;;5.60;2.60;;;;;;;;;;106789;1253;60537;-82
2023/08/12 12:02:37;;;;;;;5.70;2.70;;;;;;;;;;106785;1251;60830;-82
2023/08/12 12:05:08;;;;;;;5.30;2.50;;;;;;;;;;106885;1251;61340;-82
2023/08/12 12:07:34;;;;;;;2.60;2.20;;;;;;;;;;106776;1254;60429;-82
2023/08/12 12:10:00;;;;;;;4.80;2.30;;;;;;;;;;106824;1252;60454;-82
2023/08/12 12:12:27;;;;;;;8.00;2.20;;;;;;;;;;106791;1253;60460;-82
2023/08/12 12:14:54;;;;;;;8.10;2.30;;;;;;;;;;106864;1254;60412;-82
2023/08/12 12:17:21;;;;;;;7.00;2.70;;;;;;;;;;106746;1253;59561;-82
2023/08/12 12:19:53;;;;;;;3.70;2.70;;;;;;;;;;106838;1255;60438;-82
2023/08/12 12:22:19;;;;;;;4.60;1.90;;;;;;;;;;106756;1256;60435;-82
2023/08/12 12:24:46;;;;;;;2.10;1.90;;;;;;;;;;106748;1256;60449;-82
2023/08/12 12:27:13;;;;;;;2.90;1.60;;;;;;;;;;106837;1253;60534;-82
2023/08/12 12:29:40;;;;;;;4.10;2.20;;;;;;;;;;106915;1251;61057;-82
2023/08/12 12:32:06;;;;;;;3.80;1.70;;;;;;;;;;106763;1251;60501;-83
2023/08/12 12:34:33;;;;;;;4.90;1.90;;;;;;;;;;106742;1254;59448;-82
2023/08/12 12:36:59;;;;;;;3.00;1.90;;;;;;;;;;106759;1250;60558;-82
2023/08/12 12:39:26;;;;;;;2.60;1.80;;;;;;;;;;106765;1254;60474;-82
2023/08/12 12:41:53;;;;;;;5.30;2.00;;;;;;;;;;106866;1251;60963;-82
2023/08/12 12:44:19;;;;;;;6.60;2.40;;;;;;;;;;106786;1255;60452;-82
2023/08/12 12:46:45;;;;;;;3.20;2.40;;;;;;;;;;106808;1254;62529;-82
2023/08/12 12:49:12;;;;;;;6.10;4.20;;;;;;;;;;106879;1254;60583;-82
2023/08/12 12:51:39;;;;;;;4.10;2.50;;;;;;;;;;106933;1253;60537;-83
2023/08/12 12:54:05;;;;;;;2.80;2.00;;;;;;;;;;106837;1251;59049;-83
2023/08/12 12:56:31;;;;;;;2.50;1.80;;;;;;;;;;106838;1251;60490;-83
2023/08/12 12:58:58;;;;;;;3.40;1.60;;;;;;;;;;106751;1255;60335;-82
2023/08/12 13:01:24;;;;;;;3.20;1.60;;;;;;;;;;106824;1256;60313;-82
2023/08/12 13:03:51;;;;;;;3.60;2.00;;;;;;;;;;106794;1251;60518;-84
2023/08/12 13:06:17;;;;;;;3.40;1.20;;;;;;;;;;106840;1255;60328;-84
2023/08/12 13:08:44;;;;;;;3.00;1.80;;;;;;;;;;106871;1255;60563;-84
2023/08/12 13:11:10;;;;;;;3.20;1.50;;;;;;;;;;106839;1256;60463;-84
2023/08/12 13:13:36;;;;;;;3.00;1.50;;;;;;;;;;106804;1255;60534;-84
2023/08/12 13:16:03;;;;;;;1.80;1.50;;;;;;;;;;106836;1254;60552;-84
2023/08/12 13:18:29;;;;;;;4.20;1.80;;;;;;;;;;106829;1263;60464;-84
2023/08/12 13:20:56;;;;;;;3.50;1.60;;;;;;;;;;106855;1255;60550;-84
2023/08/12 13:23:22;;;;;;;2.70;1.60;;;;;;;;;;106818;1251;60405;-84
2023/08/12 13:25:48;;;;;;;2.70;1.90;;;;;;;;;;106877;1251;62645;-84
2023/08/12 13:28:15;;;;;;;4.30;1.80;;;;;;;;;;106875;1251;60533;-84
2023/08/12 13:30:41;;;;;;;7.00;6.50;;;;;;;;;;107030;1255;61200;-84
2023/08/12 13:33:08;;;;;;;2.20;1.60;;;;;;;;;;106851;1256;58782;-84
2023/08/12 13:35:34;;;;;;;2.60;1.60;;;;;;;;;;106903;1256;60491;-84
2023/08/12 13:38:01;;;;;;;2.20;1.40;;;;;;;;;;106993;1251;60619;-84
2023/08/12 13:40:27;;;;;;;4.60;1.90;;;;;;;;;;106882;1255;60462;-84
2023/08/12 13:42:53;;;;;;;3.10;1.70;;;;;;;;;;106845;1255;59227;-84
2023/08/12 13:45:20;;;;;;;2.80;1.80;;;;;;;;;;106938;1251;60325;-84
2023/08/12 13:47:46;;;;;;;3.90;3.20;;;;;;;;;;106861;1256;60392;-84
2023/08/12 13:50:13;;;;;;;5.20;1.70;;;;;;;;;;106896;1256;60511;-84
2023/08/12 13:52:39;;;;;;;2.30;2.00;;;;;;;;;;106855;1256;60533;-84
2023/08/12 13:55:06;;;;;;;2.20;1.50;;;;;;;;;;106890;1259;60462;-84
2023/08/12 13:57:33;;;;;;;2.20;1.40;;;;;;;;;;106835;1256;60534;-84
2023/08/12 14:00:00;;;;;;;2.40;1.70;;;;;;;;;;106861;1257;60456;-84
2023/08/12 14:02:27;;;;;;;2.30;1.90;;;;;;;;;;106800;1254;60428;-84
2023/08/12 14:04:53;;;;;;;8.40;2.80;;;;;;;;;;106857;1257;60444;-83
2023/08/12 14:07:20;;;;;;;3.60;2.10;;;;;;;;;;106689;1257;60454;-83
2023/08/12 14:09:46;;;;;;;2.70;1.70;;;;;;;;;;106804;1251;61260;-84
2023/08/12 14:12:13;;;;;;;3.70;1.80;;;;;;;;;;106888;1252;60447;-83
2023/08/12 14:14:40;;;;;;;4.50;2.10;;;;;;;;;;106826;1256;60537;-84
2023/08/12 14:17:06;;;;;;;3.50;1.70;;;;;;;;;;106831;1255;60309;-81
2023/08/12 14:19:32;;;;;;;3.60;1.70;;;;;;;;;;106780;1251;60489;-83
2023/08/12 14:21:59;;;;;;;2.90;2.00;;;;;;;;;;106919;1255;60337;-82
2023/08/12 14:24:25;;;;;;;2.60;2.10;;;;;;;;;;106757;1255;60504;-82